createdAt,value
2023-03-20T00:00:18.474Z,100938.63
2023-03-20T00:02:50.572Z,100942.09
2023-03-20T00:05:22.179Z,100938.63
2023-03-20T00:07:54.055Z,100948.34
2023-03-20T00:10:25.823Z,100939.34
2023-03-20T00:12:57.452Z,100936.53
2023-03-20T00:15:28.979Z,100944.16
2023-03-20T00:18:00.790Z,100944.41
2023-03-20T00:20:32.279Z,100941.56
2023-03-20T00:23:05.310Z,100946.72
2023-03-20T00:25:37.059Z,100942.19
2023-03-20T00:28:08.694Z,100945.28
2023-03-20T00:30:40.199Z,100944.75
2023-03-20T00:33:11.723Z,100942.16
2023-03-20T00:35:43.299Z,100946.06
2023-03-20T00:38:15.181Z,100943.84
2023-03-20T00:40:46.730Z,100934.41
2023-03-20T00:43:18.264Z,100936.44
2023-03-20T00:45:49.778Z,100933.41
2023-03-20T00:48:21.574Z,100928.31
2023-03-20T00:50:53.550Z,100930.38
2023-03-20T00:53:25.239Z,100938.19
2023-03-20T00:55:56.766Z,100936.56
2023-03-20T00:58:28.714Z,100929.63
2023-03-20T01:01:00.477Z,100928.19
2023-03-20T01:03:32.456Z,100924.69
2023-03-20T01:06:03.976Z,100929.84
2023-03-20T01:08:35.825Z,100930.66
2023-03-20T01:11:07.344Z,100930.03
2023-03-20T01:13:39.196Z,100926.53
2023-03-20T01:16:10.724Z,100932.69
2023-03-20T01:18:42.541Z,100932.06
2023-03-20T01:21:14.042Z,100931.63
2023-03-20T01:23:46.026Z,100933.25
2023-03-20T01:26:17.543Z,100934.28
2023-03-20T01:28:49.466Z,100930.59
2023-03-20T01:31:21.420Z,100935.53
2023-03-20T01:33:53.311Z,100935.91
2023-03-20T01:36:24.907Z,100933.47
2023-03-20T01:38:56.432Z,100940.25
2023-03-20T01:41:27.950Z,100945.63
2023-03-20T01:43:59.547Z,100937.41
2023-03-20T01:46:32.028Z,100933.94
2023-03-20T01:49:05.992Z,100941.91
2023-03-20T01:51:37.751Z,100930.22
2023-03-20T01:54:09.983Z,100930.44
2023-03-20T01:56:42.287Z,100929.03
2023-03-20T01:59:13.809Z,100932.91
2023-03-20T02:01:45.775Z,100937.63
2023-03-20T02:04:17.683Z,100945.41
2023-03-20T02:06:49.361Z,100947.28
2023-03-20T02:09:20.974Z,100949.75
2023-03-20T02:11:52.872Z,100951.38
2023-03-20T02:14:24.399Z,100951.34
2023-03-20T02:16:55.957Z,100947.06
2023-03-20T02:19:27.478Z,100954.63
2023-03-20T02:21:59.168Z,100949.91
2023-03-20T02:24:30.918Z,100946.03
2023-03-20T02:27:02.577Z,100941.16
2023-03-20T02:29:34.101Z,100950.59
2023-03-20T02:32:06.064Z,100951.00
2023-03-20T02:34:37.569Z,100950.59
2023-03-20T02:37:09.091Z,100953.66
2023-03-20T02:39:40.887Z,100944.44
2023-03-20T02:42:12.740Z,100940.34
2023-03-20T02:44:44.242Z,100937.09
2023-03-20T02:47:16.171Z,100954.50
2023-03-20T02:49:47.694Z,100957.16
2023-03-20T02:52:19.825Z,100949.97
2023-03-20T02:54:51.441Z,100952.03
2023-03-20T02:57:23.693Z,100949.97
2023-03-20T02:59:55.298Z,100953.84
2023-03-20T03:02:27.227Z,100954.25
2023-03-20T03:04:58.783Z,100951.63
2023-03-20T03:07:31.314Z,100944.88
2023-03-20T03:10:02.841Z,100947.53
2023-03-20T03:12:34.607Z,100942.19
2023-03-20T03:15:06.269Z,100949.72
2023-03-20T03:17:38.016Z,100945.59
2023-03-20T03:20:09.545Z,100945.63
2023-03-20T03:22:41.586Z,100944.41
2023-03-20T03:25:13.700Z,100953.19
2023-03-20T03:27:45.723Z,100948.88
2023-03-20T03:30:17.408Z,100951.53
2023-03-20T03:32:48.959Z,100924.72
2023-03-20T03:35:20.709Z,100954.19
2023-03-20T03:37:52.266Z,100951.53
2023-03-20T03:40:24.530Z,100953.38
2023-03-20T03:42:56.311Z,100959.72
2023-03-20T03:45:27.925Z,100954.22
2023-03-20T03:47:59.566Z,100966.50
2023-03-20T03:50:31.276Z,100957.69
2023-03-20T03:53:03.220Z,100960.56
2023-03-20T03:55:35.258Z,100964.03
2023-03-20T03:58:07.438Z,100962.44
2023-03-20T04:00:39.012Z,100952.59
2023-03-20T04:03:11.037Z,100956.91
2023-03-20T04:05:42.545Z,100950.56
2023-03-20T04:08:14.370Z,100956.72
2023-03-20T04:10:46.013Z,100955.91
2023-03-20T04:13:17.894Z,100956.50
2023-03-20T04:15:49.577Z,100955.88
2023-03-20T04:18:21.719Z,100964.91
2023-03-20T04:20:53.594Z,100972.50
2023-03-20T04:23:25.142Z,100968.63
2023-03-20T04:25:56.763Z,100977.03
2023-03-20T04:28:28.578Z,100980.28
2023-03-20T04:31:00.187Z,100988.28
2023-03-20T04:33:32.132Z,100978.84
2023-03-20T04:36:03.675Z,100982.13
2023-03-20T04:38:35.564Z,100989.09
2023-03-20T04:41:07.172Z,100982.53
2023-03-20T04:43:39.320Z,100984.38
2023-03-20T04:46:10.952Z,100986.44
2023-03-20T04:48:42.705Z,100985.81
2023-03-20T04:51:14.241Z,100985.41
2023-03-20T04:53:45.810Z,100980.50
2023-03-20T04:56:17.333Z,100988.66
2023-03-20T04:58:49.215Z,100984.16
2023-03-20T05:01:20.815Z,100984.56
2023-03-20T05:03:52.846Z,100983.13
2023-03-20T05:06:24.368Z,100986.19
2023-03-20T05:08:56.020Z,100988.66
2023-03-20T05:11:27.532Z,100992.78
2023-03-20T05:13:59.103Z,100987.03
2023-03-20T05:16:30.624Z,100989.28
2023-03-20T05:19:02.160Z,100990.13
2023-03-20T05:21:33.724Z,100991.53
2023-03-20T05:24:05.867Z,100994.00
2023-03-20T05:26:37.472Z,100995.44
2023-03-20T05:29:09.494Z,100989.28
2023-03-20T05:31:41.310Z,100994.81
2023-03-20T05:34:13.126Z,100990.53
2023-03-20T05:36:44.645Z,100990.13
2023-03-20T05:39:16.462Z,100993.56
2023-03-20T05:41:47.986Z,100998.47
2023-03-20T05:44:19.834Z,100996.63
2023-03-20T05:46:51.373Z,100998.91
2023-03-20T05:49:23.306Z,101000.94
2023-03-20T05:51:54.829Z,100997.66
2023-03-20T05:54:26.627Z,101000.09
2023-03-20T05:56:59.262Z,101000.72
2023-03-20T05:59:31.275Z,101007.47
2023-03-20T06:02:02.772Z,101001.13
2023-03-20T06:04:35.596Z,101003.97
2023-03-20T06:07:07.404Z,101013.97
2023-03-20T06:09:39.288Z,101012.53
2023-03-20T06:12:11.082Z,101017.03
2023-03-20T06:14:42.838Z,101018.88
2023-03-20T06:17:14.342Z,101022.13
2023-03-20T06:19:46.225Z,101030.50
2023-03-20T06:22:17.721Z,101033.13
2023-03-20T06:24:49.537Z,101027.03
2023-03-20T06:27:21.474Z,101033.38
2023-03-20T06:29:53.231Z,101043.50
2023-03-20T06:32:24.776Z,101043.69
2023-03-20T06:34:56.293Z,101050.06
2023-03-20T06:37:27.798Z,101054.38
2023-03-20T06:39:59.314Z,101056.66
2023-03-20T06:42:30.910Z,101055.22
2023-03-20T06:45:02.819Z,101062.00
2023-03-20T06:47:34.334Z,101076.34
2023-03-20T06:50:06.287Z,101083.94
2023-03-20T06:52:37.960Z,101082.91
2023-03-20T06:55:09.892Z,101087.00
2023-03-20T06:57:41.399Z,101086.78
2023-03-20T07:00:13.282Z,101078.81
2023-03-20T07:02:45.060Z,101076.34
2023-03-20T07:05:16.997Z,101084.53
2023-03-20T07:07:48.754Z,101082.91
2023-03-20T07:10:20.608Z,101090.28
2023-03-20T07:12:52.117Z,101083.31
2023-03-20T07:15:24.051Z,101090.69
2023-03-20T07:17:55.896Z,101097.44
2023-03-20T07:20:27.686Z,101101.13
2023-03-20T07:22:59.199Z,101102.16
2023-03-20T07:25:42.325Z,101102.34
2023-03-20T07:28:14.869Z,101106.22
2023-03-20T07:30:46.365Z,101112.38
2023-03-20T07:33:17.939Z,101119.13
2023-03-20T07:35:49.483Z,101113.81
2023-03-20T07:38:21.412Z,101106.25
2023-03-20T07:40:52.954Z,101114.63
2023-03-20T07:43:24.467Z,101114.22
2023-03-20T07:45:56.308Z,101110.97
2023-03-20T07:48:28.232Z,101116.94
2023-03-20T07:50:59.772Z,101119.16
2023-03-20T07:53:31.827Z,101117.53
2023-03-20T07:56:03.612Z,101113.22
2023-03-20T07:58:35.355Z,101105.84
2023-03-20T08:01:06.865Z,101110.34
2023-03-20T08:03:39.972Z,101114.66
2023-03-20T08:06:11.576Z,101113.13
2023-03-20T08:08:45.331Z,101119.53
2023-03-20T08:11:16.957Z,101119.19
2023-03-20T08:13:48.828Z,101124.97
2023-03-20T08:16:20.430Z,101124.56
2023-03-20T08:18:53.582Z,101125.00
2023-03-20T08:21:25.500Z,101138.72
2023-03-20T08:23:57.010Z,101142.25
2023-03-20T08:26:28.609Z,101138.41
2023-03-20T08:29:00.175Z,101141.03
2023-03-20T08:31:31.881Z,101152.34
2023-03-20T08:34:03.713Z,101152.97
2023-03-20T08:36:35.220Z,101150.91
2023-03-20T08:39:07.254Z,101150.50
2023-03-20T08:41:45.763Z,101155.56
2023-03-20T08:44:17.571Z,101144.81
2023-03-20T08:46:49.123Z,101146.78
2023-03-20T08:49:21.102Z,101151.34
2023-03-20T08:51:52.725Z,101152.69
2023-03-20T08:54:24.662Z,101150.19
2023-03-20T08:56:56.461Z,101148.38
2023-03-20T08:59:28.305Z,101159.50
2023-03-20T09:01:59.890Z,101159.03
2023-03-20T09:04:31.674Z,101144.13
2023-03-20T09:07:03.244Z,101155.75
2023-03-20T09:09:35.104Z,101152.91
2023-03-20T09:12:07.419Z,101150.31
2023-03-20T09:14:39.397Z,101162.66
2023-03-20T09:17:10.900Z,101161.16
2023-03-20T09:19:44.943Z,101164.97
2023-03-20T09:22:18.105Z,101158.50
2023-03-20T09:24:49.958Z,101159.97
2023-03-20T09:27:21.650Z,101152.41
2023-03-20T09:29:53.524Z,101155.44
2023-03-20T09:32:25.184Z,101164.06
2023-03-20T09:34:56.736Z,101153.22
2023-03-20T09:37:28.232Z,101159.50
2023-03-20T09:39:59.812Z,101158.19
2023-03-20T09:42:31.311Z,101159.88
2023-03-20T09:45:03.783Z,101162.06
2023-03-20T09:47:35.279Z,101155.19
2023-03-20T09:50:07.022Z,101149.78
2023-03-20T09:52:38.554Z,101149.25
2023-03-20T09:55:10.422Z,101152.00
2023-03-20T09:57:41.940Z,101154.81
2023-03-20T10:00:13.517Z,101151.78
2023-03-20T10:02:45.351Z,101164.16
2023-03-20T10:05:17.023Z,101065.38
2023-03-20T10:07:48.519Z,101165.06
2023-03-20T10:10:20.821Z,101157.31
2023-03-20T10:12:52.395Z,101161.97
2023-03-20T10:15:24.419Z,101159.34
2023-03-20T10:17:56.403Z,101154.88
2023-03-20T10:20:28.161Z,101155.72
2023-03-20T10:22:59.762Z,101163.09
2023-03-20T10:25:32.556Z,101163.78
2023-03-20T10:28:04.401Z,101158.34
2023-03-20T10:30:36.558Z,101159.47
2023-03-20T10:33:08.225Z,101150.16
2023-03-20T10:35:40.881Z,101147.00
2023-03-20T10:38:12.386Z,101155.84
2023-03-20T10:40:44.232Z,101153.16
2023-03-20T10:43:16.831Z,101138.72
2023-03-20T10:45:48.887Z,101148.38
2023-03-20T10:48:20.405Z,101152.00
2023-03-20T10:50:52.357Z,101151.69
2023-03-20T10:53:24.248Z,101148.56
2023-03-20T10:55:56.286Z,101153.53
2023-03-20T10:58:27.813Z,101148.09
2023-03-20T11:00:59.582Z,101144.47
2023-03-20T11:03:31.698Z,101149.25
2023-03-20T11:06:09.692Z,101145.78
2023-03-20T11:08:41.960Z,101151.06
2023-03-20T11:11:13.685Z,101138.88
2023-03-20T11:13:45.450Z,101143.88
2023-03-20T11:16:17.327Z,101140.66
2023-03-20T11:18:52.355Z,101134.69
2023-03-20T11:21:24.251Z,101139.41
2023-03-20T11:23:55.804Z,101139.88
2023-03-20T11:26:27.573Z,101128.41
2023-03-20T11:28:59.093Z,101138.00
2023-03-20T11:31:31.322Z,101134.34
2023-03-20T11:34:02.857Z,101132.84
2023-03-20T11:36:35.896Z,101139.31
2023-03-20T11:39:07.381Z,101137.66
2023-03-20T11:41:40.733Z,101133.88
2023-03-20T11:44:12.285Z,101132.41
2023-03-20T11:46:44.453Z,101135.13
2023-03-20T11:49:16.128Z,101126.84
2023-03-20T11:51:48.056Z,101125.06
2023-03-20T11:54:19.600Z,101123.31
2023-03-20T11:56:51.455Z,101117.56
2023-03-20T11:59:23.009Z,101120.44
2023-03-20T12:01:54.609Z,101108.22
2023-03-20T12:04:26.146Z,101104.22
2023-03-20T12:06:57.680Z,101108.91
2023-03-20T12:09:29.176Z,101106.34
2023-03-20T12:12:00.701Z,101111.69
2023-03-20T12:14:32.261Z,101105.31
2023-03-20T12:17:04.114Z,101101.81
2023-03-20T12:19:35.718Z,101102.53
2023-03-20T12:22:07.534Z,101099.03
2023-03-20T12:24:39.086Z,101103.41
2023-03-20T12:27:11.078Z,101096.28
2023-03-20T12:29:42.620Z,101084.28
2023-03-20T12:32:14.370Z,101085.34
2023-03-20T12:34:46.969Z,101081.28
2023-03-20T12:37:18.698Z,101076.94
2023-03-20T12:39:50.370Z,101074.41
2023-03-20T12:42:22.691Z,101070.78
2023-03-20T12:44:54.203Z,101072.34
2023-03-20T12:47:25.993Z,101063.88
2023-03-20T12:49:57.511Z,101066.28
2023-03-20T12:52:29.409Z,101068.66
2023-03-20T12:55:01.544Z,101065.84
2023-03-20T12:57:33.046Z,101062.59
2023-03-20T13:00:04.531Z,101060.63
2023-03-20T13:02:36.309Z,101064.03
2023-03-20T13:05:07.862Z,101067.28
2023-03-20T13:07:39.743Z,101059.94
2023-03-20T13:10:11.289Z,101052.69
2023-03-20T13:12:43.181Z,101055.59
2023-03-20T13:15:14.919Z,101063.06
2023-03-20T13:17:46.654Z,101061.00
2023-03-20T13:20:18.541Z,101060.97
2023-03-20T13:22:50.657Z,101053.06
2023-03-20T13:25:22.536Z,101053.84
2023-03-20T13:27:54.039Z,101057.13
2023-03-20T13:30:25.962Z,101053.53
2023-03-20T13:32:57.522Z,101040.81
2023-03-20T13:35:29.409Z,101039.16
2023-03-20T13:38:00.913Z,101034.03
2023-03-20T13:40:32.618Z,101036.22
2023-03-20T13:43:04.116Z,101034.59
2023-03-20T13:45:36.157Z,101039.84
2023-03-20T13:48:07.658Z,101036.31
2023-03-20T13:50:39.477Z,101031.50
2023-03-20T13:53:11.583Z,101029.16
2023-03-20T13:55:43.264Z,101029.28
2023-03-20T13:58:14.774Z,101023.56
2023-03-20T14:00:46.733Z,101022.97
2023-03-20T14:03:19.207Z,101027.19
2023-03-20T14:05:51.222Z,101034.50
2023-03-20T14:08:22.775Z,101041.31
2023-03-20T14:10:54.360Z,101033.50
2023-03-20T14:13:27.990Z,101031.72
2023-03-20T14:15:59.897Z,101027.31
2023-03-20T14:18:31.509Z,101030.81
2023-03-20T14:21:03.241Z,101032.34
2023-03-20T14:23:35.070Z,101033.50
2023-03-20T14:26:06.915Z,101029.94
2023-03-20T14:28:38.413Z,101027.06
2023-03-20T14:31:10.205Z,101028.72
2023-03-20T14:33:41.719Z,101024.63
2023-03-20T14:36:13.624Z,101030.13
2023-03-20T14:38:45.216Z,101035.31
2023-03-20T14:41:16.977Z,101022.78
2023-03-20T14:43:48.496Z,101025.22
2023-03-20T14:46:20.028Z,101020.56
2023-03-20T14:48:51.546Z,101020.16
2023-03-20T14:51:23.096Z,101026.50
2023-03-20T14:53:56.767Z,101023.84
2023-03-20T14:56:28.961Z,101021.63
2023-03-20T14:59:00.481Z,101017.91
2023-03-20T15:01:32.577Z,101017.28
2023-03-20T15:04:04.074Z,101020.75
2023-03-20T15:06:35.745Z,101020.69
2023-03-20T15:09:07.435Z,101014.38
2023-03-20T15:11:39.315Z,101013.41
2023-03-20T15:14:10.856Z,101005.84
2023-03-20T15:16:42.796Z,100997.59
2023-03-20T15:19:14.304Z,100993.75
2023-03-20T15:21:46.330Z,100994.91
2023-03-20T15:24:17.834Z,100995.78
2023-03-20T15:26:49.699Z,100999.16
2023-03-20T15:29:21.242Z,100993.38
2023-03-20T15:32:06.471Z,100992.41
2023-03-20T15:34:44.208Z,100990.00
2023-03-20T15:37:16.273Z,100983.94
2023-03-20T15:39:48.001Z,100988.84
2023-03-20T15:42:19.944Z,100986.69
2023-03-20T15:44:52.100Z,100985.94
2023-03-20T15:47:23.998Z,100990.38
2023-03-20T15:49:55.700Z,100987.66
2023-03-20T15:52:28.233Z,100992.03
2023-03-20T15:54:59.844Z,100987.81
2023-03-20T15:57:33.112Z,100998.72
2023-03-20T16:00:06.425Z,100998.59
2023-03-20T16:02:38.320Z,100998.56
2023-03-20T16:05:09.832Z,101001.69
2023-03-20T16:07:41.408Z,101007.25
2023-03-20T16:10:12.921Z,101004.84
2023-03-20T16:12:44.735Z,101014.19
2023-03-20T16:15:16.839Z,101005.59
2023-03-20T16:17:48.739Z,101007.78
2023-03-20T16:20:20.274Z,101006.47
2023-03-20T16:22:52.196Z,101008.97
2023-03-20T16:25:23.685Z,101007.69
2023-03-20T16:27:55.423Z,101016.44
2023-03-20T16:30:27.029Z,101015.34
2023-03-20T16:32:58.577Z,101018.22
2023-03-20T16:35:30.382Z,101010.19
2023-03-20T16:38:02.491Z,101009.53
2023-03-20T16:40:34.183Z,101009.97
2023-03-20T16:43:06.560Z,101011.91
2023-03-20T16:45:38.395Z,101014.09
2023-03-20T16:48:10.327Z,101005.09
2023-03-20T16:50:41.911Z,101007.34
2023-03-20T16:53:13.602Z,101010.66
2023-03-20T16:55:45.103Z,101010.94
2023-03-20T16:58:16.944Z,101007.94
2023-03-20T17:00:48.564Z,101006.91
2023-03-20T17:03:20.213Z,101010.78
2023-03-20T17:05:51.751Z,101013.38
2023-03-20T17:08:24.097Z,101022.44
2023-03-20T17:10:55.813Z,101030.22
2023-03-20T17:13:27.712Z,101018.34
2023-03-20T17:15:59.583Z,101020.19
2023-03-20T17:18:31.193Z,101018.78
2023-03-20T17:21:02.960Z,101024.34
2023-03-20T17:23:34.471Z,101018.06
2023-03-20T17:26:06.021Z,101020.97
2023-03-20T17:28:38.037Z,101028.38
2023-03-20T17:31:10.710Z,101024.06
2023-03-20T17:33:42.253Z,101027.66
2023-03-20T17:36:14.056Z,101025.84
2023-03-20T17:38:45.619Z,101029.97
2023-03-20T17:41:17.411Z,101034.72
2023-03-20T17:43:49.037Z,101035.09
2023-03-20T17:46:20.785Z,101042.13
2023-03-20T17:48:52.360Z,101041.28
2023-03-20T17:51:24.059Z,101032.88
2023-03-20T17:53:57.773Z,101032.03
2023-03-20T17:56:33.111Z,101043.31
2023-03-20T17:59:06.490Z,101040.44
2023-03-20T18:01:38.616Z,101042.06
2023-03-20T18:04:10.353Z,101040.03
2023-03-20T18:06:42.415Z,101042.50
2023-03-20T18:09:15.267Z,101046.06
2023-03-20T18:11:46.876Z,101042.56
2023-03-20T18:14:19.335Z,101045.06
2023-03-20T18:16:51.342Z,101047.34
2023-03-20T18:19:23.064Z,101039.97
2023-03-20T18:21:54.598Z,101042.44
2023-03-20T18:24:26.160Z,101036.31
2023-03-20T18:26:59.033Z,101036.31
2023-03-20T18:29:30.620Z,101036.09
2023-03-20T18:32:02.271Z,101041.63
2023-03-20T18:34:33.789Z,101037.94
2023-03-20T18:37:08.297Z,101049.84
2023-03-20T18:39:39.892Z,101042.25
2023-03-20T18:42:11.809Z,101041.03
2023-03-20T18:44:43.311Z,101043.88
2023-03-20T18:47:15.126Z,101042.66
2023-03-20T18:49:46.738Z,101044.72
2023-03-20T18:52:18.345Z,101048.00
2023-03-20T18:54:51.861Z,101041.84
2023-03-20T18:57:23.712Z,101049.84
2023-03-20T18:59:55.340Z,101053.13
2023-03-20T19:02:26.923Z,101043.91
2023-03-20T19:04:58.428Z,101050.88
2023-03-20T19:07:30.257Z,101042.06
2023-03-20T19:10:01.745Z,101049.84
2023-03-20T19:12:33.498Z,101046.75
2023-03-20T19:15:05.116Z,101048.00
2023-03-20T19:17:37.006Z,101072.59
2023-03-20T19:20:08.504Z,101049.44
2023-03-20T19:22:40.394Z,101052.91
2023-03-20T19:25:11.881Z,101046.34
2023-03-20T19:27:43.646Z,101057.03
2023-03-20T19:30:15.347Z,101052.94
2023-03-20T19:32:47.067Z,101062.16
2023-03-20T19:38:10.359Z,101056.84
2023-03-20T19:40:43.282Z,101054.63
2023-03-20T19:43:15.660Z,101050.91
2023-03-20T19:45:47.158Z,101051.09
2023-03-20T19:48:18.859Z,101054.81
2023-03-20T19:50:51.116Z,101047.84
2023-03-20T19:53:24.923Z,101055.00
2023-03-20T19:55:56.537Z,101054.81
2023-03-20T19:58:28.480Z,101052.75
2023-03-20T20:01:00.430Z,101052.16
2023-03-20T20:03:32.439Z,101050.94
2023-03-20T20:06:04.616Z,101058.72
2023-03-20T20:08:47.819Z,101064.47
2023-03-20T20:11:20.157Z,101052.19
2023-03-20T20:14:09.307Z,101051.97
2023-03-20T20:16:42.986Z,101049.91
2023-03-20T20:19:15.123Z,101052.59
2023-03-20T20:22:19.979Z,101046.25
2023-03-20T20:24:39.636Z,101049.72
2023-03-20T20:27:18.221Z,101037.66
2023-03-20T20:29:50.489Z,101052.38
2023-03-20T20:32:23.141Z,101047.69
2023-03-20T20:40:38.365Z,101039.50
2023-03-20T20:43:10.974Z,101037.84
2023-03-20T20:45:42.624Z,101041.75
2023-03-20T20:48:14.633Z,101044.59
2023-03-20T20:50:46.592Z,101044.41
2023-03-20T20:53:18.098Z,101039.28
2023-03-20T20:55:49.603Z,101050.97
2023-03-20T20:58:21.434Z,101046.25
2023-03-20T21:00:55.498Z,101046.88
2023-03-20T21:03:29.200Z,101055.88
2023-03-20T21:06:00.866Z,101059.97
2023-03-20T21:08:34.687Z,101053.22
2023-03-20T21:11:06.931Z,101045.63
2023-03-20T21:13:38.764Z,101041.94
2023-03-20T21:16:10.361Z,101038.06
2023-03-20T21:18:42.135Z,101034.56
2023-03-20T21:21:13.682Z,101034.78
2023-03-20T21:23:45.601Z,101047.47
2023-03-20T21:26:17.579Z,101052.59
2023-03-20T21:28:49.436Z,101039.91
2023-03-20T21:31:26.548Z,101034.38
2023-03-20T21:33:59.562Z,101045.03
2023-03-20T21:36:31.764Z,101049.31
2023-03-20T21:39:08.741Z,101050.56
2023-03-20T21:41:41.193Z,101048.09
2023-03-20T21:44:17.437Z,101058.75
2023-03-20T21:47:39.832Z,101050.97
2023-03-20T21:58:56.446Z,101068.16
2023-03-20T22:04:54.831Z,101065.28
2023-03-20T22:10:28.708Z,101067.53
2023-03-20T22:13:20.798Z,101062.44
2023-03-20T22:16:10.946Z,101076.56
2023-03-20T22:19:18.344Z,101076.34
2023-03-20T22:39:05.213Z,101073.22
2023-03-20T22:44:50.052Z,101078.75
2023-03-20T22:46:56.938Z,101065.25
2023-03-20T22:49:28.825Z,101064.66
2023-03-20T22:52:24.404Z,101060.75
2023-03-20T22:54:52.811Z,101068.72
2023-03-20T22:57:31.694Z,101067.09
2023-03-20T23:00:10.770Z,101068.50
2023-03-20T23:02:42.288Z,101072.19
2023-03-20T23:05:14.194Z,101070.97
2023-03-20T23:07:46.109Z,101073.44
2023-03-20T23:10:17.910Z,101071.16
2023-03-20T23:12:49.519Z,101070.34
2023-03-20T23:15:21.049Z,101064.00
2023-03-20T23:17:52.538Z,101063.38
2023-03-20T23:20:24.422Z,101068.09
2023-03-20T23:22:55.920Z,101069.72
2023-03-20T23:25:38.704Z,101067.47
2023-03-20T23:28:11.394Z,101067.06
2023-03-20T23:30:49.766Z,101070.31
2023-03-20T23:33:25.533Z,101065.22
2023-03-20T23:36:01.134Z,101069.94
2023-03-20T23:38:40.345Z,101069.09
2023-03-20T23:41:12.080Z,101074.63
2023-03-20T23:43:44.173Z,101063.94
2023-03-20T23:46:15.781Z,101068.91
2023-03-20T23:48:47.691Z,101068.44
2023-03-20T23:51:19.200Z,101064.41
2023-03-20T23:53:51.109Z,101073.59
2023-03-20T23:56:22.661Z,101066.22
2023-03-20T23:59:01.131Z,101067.88
